Time;durP1;ratioP1;P1;durP2;ratioP2;P2;SDS_P1;SDS_P2;PMS_P1;PMS_P2;Temp;Humidity;BMP_temperature;BMP_pressure;BME280_temperature;BME280_humidity;BME280_pressure;Samples;Min_cycle;Max_cycle;Signal;HPM_P1;HPM_P2
2024/01/13 00:00:41;;;;;;;;;;;3.00;99.90;;;;;;4991725;28;19922;-85
2024/01/13 00:03:07;;;;;;;;;;;4.10;99.90;;;;;;5006488;28;20396;-85
2024/01/13 00:05:32;;;;;;;;;;;3.30;99.90;;;;;;5036211;28;20293;-85
2024/01/13 00:07:58;;;;;;;;;;;4.00;99.90;;;;;;4990723;28;19921;-86
2024/01/13 00:10:23;;;;;;;;;;;4.50;99.90;;;;;;5016518;28;20005;-84
2024/01/13 00:12:49;;;;;;;;;;;4.20;99.90;;;;;;4998559;28;19921;-85
2024/01/13 00:15:14;;;;;;;;;;;3.80;99.90;;;;;;5018907;28;20004;-85
2024/01/13 00:17:40;;;;;;;;;;;3.80;99.90;;;;;;5000100;28;19928;-85
2024/01/13 00:20:06;;;;;;;;;;;4.80;99.90;;;;;;5029224;28;19921;-85
2024/01/13 00:22:32;;;;;;;;;;;3.00;99.90;;;;;;5003040;28;19936;-85
2024/01/13 00:24:57;;;;;;;;;;;3.00;99.90;;;;;;5034858;28;20293;-86
2024/01/13 00:27:23;;;;;;;;;;;4.60;99.90;;;;;;5035465;28;19925;-86
2024/01/13 00:29:48;;;;;;;;;;;3.00;99.90;;;;;;5019036;28;19921;-85
2024/01/13 00:32:14;;;;;;;;;;;4.30;99.90;;;;;;5017153;28;19921;-85
2024/01/13 00:34:40;;;;;;;;;;;3.00;99.90;;;;;;5009825;28;20044;-85
2024/01/13 00:37:05;;;;;;;;;;;3.00;99.90;;;;;;4991674;28;19964;-85
2024/01/13 00:39:31;;;;;;;;;;;3.00;99.90;;;;;;4996154;28;19928;-84
2024/01/13 00:41:57;;;;;;;;;;;4.40;99.90;;;;;;5002834;28;19932;-85
2024/01/13 00:44:22;;;;;;;;;;;4.60;99.90;;;;;;5034402;28;19925;-86
2024/01/13 00:46:48;;;;;;;;;;;3.70;99.90;;;;;;5019012;28;19921;-86
2024/01/13 00:49:13;;;;;;;;;;;3.00;99.90;;;;;;5034474;28;19952;-85
2024/01/13 00:51:39;;;;;;;;;;;2.90;99.90;;;;;;5017981;28;19921;-85
2024/01/13 00:54:06;;;;;;;;;;;4.30;99.90;;;;;;5001328;28;20003;-85
2024/01/13 00:56:32;;;;;;;;;;;3.00;99.90;;;;;;5034947;28;19921;-85
2024/01/13 00:58:58;;;;;;;;;;;3.00;99.90;;;;;;5033601;28;20330;-85
2024/01/13 01:01:23;;;;;;;;;;;3.50;99.90;;;;;;5017937;28;20008;-85
2024/01/13 01:03:49;;;;;;;;;;;3.00;99.90;;;;;;5018330;28;19925;-85
2024/01/13 01:06:15;;;;;;;;;;;3.00;99.90;;;;;;5032510;28;20000;-85
2024/01/13 01:08:40;;;;;;;;;;;3.00;99.90;;;;;;5035711;28;19912;-85
2024/01/13 01:11:06;;;;;;;;;;;3.50;99.90;;;;;;5001030;28;19921;-86
2024/01/13 01:13:32;;;;;;;;;;;2.90;99.90;;;;;;5028598;28;19974;-85
2024/01/13 01:15:58;;;;;;;;;;;2.90;99.90;;;;;;5013922;28;19937;-84
2024/01/13 01:18:23;;;;;;;;;;;2.90;99.90;;;;;;5017157;28;20063;-85
2024/01/13 01:20:49;;;;;;;;;;;2.90;99.90;;;;;;5000675;28;19990;-85
2024/01/13 01:23:14;;;;;;;;;;;2.90;99.90;;;;;;5009825;28;20365;-84
2024/01/13 01:25:40;;;;;;;;;;;3.60;99.90;;;;;;4990123;28;20052;-85
2024/01/13 01:28:05;;;;;;;;;;;3.40;99.90;;;;;;5016745;28;20372;-85
2024/01/13 01:30:31;;;;;;;;;;;4.80;99.90;;;;;;5017567;28;20082;-85
2024/01/13 01:32:57;;;;;;;;;;;2.90;99.90;;;;;;4999705;28;20281;-85
2024/01/13 01:35:22;;;;;;;;;;;4.60;99.90;;;;;;5016100;28;19951;-85
2024/01/13 01:37:48;;;;;;;;;;;2.90;99.90;;;;;;5000928;28;19928;-85
2024/01/13 01:40:15;;;;;;;;;;;2.90;99.90;;;;;;5017376;28;19921;-85
2024/01/13 01:42:41;;;;;;;;;;;3.90;99.90;;;;;;5017130;28;20372;-85
2024/01/13 01:45:07;;;;;;;;;;;2.90;99.90;;;;;;5003540;28;19965;-85
2024/01/13 01:47:33;;;;;;;;;;;2.90;99.90;;;;;;4996368;28;20401;-85
2024/01/13 01:49:59;;;;;;;;;;;2.90;99.90;;;;;;5001078;28;19921;-85
2024/01/13 01:52:25;;;;;;;;;;;3.40;99.90;;;;;;5027362;28;19936;-85
2024/01/13 01:54:51;;;;;;;;;;;2.90;99.90;;;;;;5033869;28;19921;-85
2024/01/13 01:57:18;;;;;;;;;;;4.20;99.90;;;;;;5015109;28;19959;-85
2024/01/13 01:59:44;;;;;;;;;;;4.80;99.90;;;;;;5031666;28;20386;-85
2024/01/13 02:02:10;;;;;;;;;;;3.50;99.90;;;;;;5033272;28;19925;-85
2024/01/13 02:04:36;;;;;;;;;;;3.90;99.90;;;;;;4998611;28;19921;-85
2024/01/13 02:07:02;;;;;;;;;;;4.00;99.90;;;;;;5040418;28;19936;-85
2024/01/13 02:09:27;;;;;;;;;;;4.20;99.90;;;;;;4997224;28;19922;-84
2024/01/13 02:11:53;;;;;;;;;;;4.20;99.90;;;;;;5027610;28;20391;-85
2024/01/13 02:14:19;;;;;;;;;;;2.90;99.90;;;;;;5014871;28;19961;-85
2024/01/13 02:16:44;;;;;;;;;;;2.90;99.90;;;;;;5030527;28;19928;-85
2024/01/13 02:19:10;;;;;;;;;;;2.80;99.90;;;;;;5015172;28;19921;-85
2024/01/13 02:21:35;;;;;;;;;;;2.90;99.90;;;;;;5031754;28;20020;-85
2024/01/13 02:24:01;;;;;;;;;;;3.60;99.90;;;;;;5024936;28;20011;-85
2024/01/13 02:26:28;;;;;;;;;;;4.00;99.90;;;;;;4999770;28;19975;-85
2024/01/13 02:28:53;;;;;;;;;;;2.80;99.90;;;;;;5016802;28;19925;-85
2024/01/13 02:31:19;;;;;;;;;;;2.90;99.90;;;;;;5016458;28;19928;-85
2024/01/13 02:33:44;;;;;;;;;;;4.70;99.90;;;;;;5012080;28;19945;-85
2024/01/13 02:36:10;;;;;;;;;;;3.10;99.90;;;;;;4996333;28;19921;-84
2024/01/13 02:38:36;;;;;;;;;;;2.90;99.90;;;;;;5014714;28;20344;-85
2024/01/13 02:41:01;;;;;;;;;;;2.90;99.90;;;;;;4999662;28;19925;-85
2024/01/13 02:43:27;;;;;;;;;;;2.80;99.90;;;;;;5014337;28;20384;-85
2024/01/13 02:45:52;;;;;;;;;;;4.30;99.90;;;;;;5014676;28;19921;-85
2024/01/13 02:48:18;;;;;;;;;;;2.90;99.90;;;;;;5015503;28;19925;-85
2024/01/13 02:50:47;;;;;;;;;;;2.80;99.90;;;;;;5015436;28;19921;-85
2024/01/13 02:53:12;;;;;;;;;;;4.50;99.90;;;;;;5027130;28;19995;-85
2024/01/13 02:55:39;;;;;;;;;;;4.10;99.90;;;;;;5016388;28;20380;-85
2024/01/13 02:58:05;;;;;;;;;;;4.40;99.90;;;;;;5016531;28;20281;-85
2024/01/13 03:00:30;;;;;;;;;;;4.00;99.90;;;;;;4998144;28;19921;-85
2024/01/13 03:02:56;;;;;;;;;;;2.80;99.90;;;;;;5015857;28;19932;-85
2024/01/13 03:05:22;;;;;;;;;;;2.70;99.90;;;;;;5008420;28;20503;-85
2024/01/13 03:07:47;;;;;;;;;;;2.80;99.90;;;;;;4996752;28;19929;-85
2024/01/13 03:10:13;;;;;;;;;;;2.70;99.90;;;;;;5015024;28;20013;-85
2024/01/13 03:12:38;;;;;;;;;;;2.70;99.90;;;;;;4999569;28;19928;-85
2024/01/13 03:15:04;;;;;;;;;;;2.70;99.90;;;;;;4996695;28;20380;-85
2024/01/13 03:17:30;;;;;;;;;;;2.70;99.90;;;;;;4999922;28;19921;-85
2024/01/13 03:19:56;;;;;;;;;;;3.50;99.90;;;;;;5031601;28;20419;-85
2024/01/13 03:22:22;;;;;;;;;;;4.10;99.90;;;;;;4999152;28;19936;-85
2024/01/13 03:24:48;;;;;;;;;;;3.70;99.90;;;;;;4998759;28;19921;-85
2024/01/13 03:27:13;;;;;;;;;;;4.00;99.90;;;;;;4991099;28;19968;-85
2024/01/13 03:29:39;;;;;;;;;;;1.70;99.90;;;;;;5013462;28;19999;-85
2024/01/13 03:32:06;;;;;;;;;;;3.70;99.90;;;;;;5016093;28;20388;-85
2024/01/13 03:34:32;;;;;;;;;;;2.70;99.90;;;;;;5000559;28;20056;-85
2024/01/13 03:36:57;;;;;;;;;;;2.70;99.90;;;;;;5019849;28;19921;-85
2024/01/13 03:39:23;;;;;;;;;;;4.10;99.90;;;;;;5013348;28;19927;-84
2024/01/13 03:41:49;;;;;;;;;;;3.80;99.90;;;;;;5019127;28;19943;-85
2024/01/13 03:44:14;;;;;;;;;;;2.70;99.90;;;;;;5000301;28;19957;-85
2024/01/13 03:46:40;;;;;;;;;;;3.00;99.90;;;;;;5035903;28;19928;-85
2024/01/13 03:49:06;;;;;;;;;;;4.00;99.90;;;;;;5034760;28;20015;-84
2024/01/13 03:51:31;;;;;;;;;;;2.70;99.90;;;;;;5019293;28;20351;-84
2024/01/13 03:53:57;;;;;;;;;;;3.10;99.90;;;;;;5018158;28;20017;-84
2024/01/13 03:56:22;;;;;;;;;;;2.70;99.90;;;;;;5021678;28;20369;-85
2024/01/13 03:58:48;;;;;;;;;;;1.60;99.90;;;;;;5036659;28;19921;-85
2024/01/13 04:01:14;;;;;;;;;;;4.60;99.90;;;;;;5020924;28;19922;-85
2024/01/13 04:03:40;;;;;;;;;;;3.20;99.90;;;;;;5013406;28;19933;-84
2024/01/13 04:06:06;;;;;;;;;;;4.50;99.90;;;;;;5032301;28;20017;-84
2024/01/13 04:08:32;;;;;;;;;;;2.70;99.90;;;;;;5018948;28;19931;-84
2024/01/13 04:10:58;;;;;;;;;;;4.40;99.90;;;;;;5001059;28;19921;-84
2024/01/13 04:13:24;;;;;;;;;;;2.80;99.90;;;;;;5035196;28;19921;-84
2024/01/13 04:15:49;;;;;;;;;;;2.80;99.90;;;;;;5014806;28;20385;-84
2024/01/13 04:18:15;;;;;;;;;;;2.80;99.90;;;;;;5000314;28;19957;-84
2024/01/13 04:20:40;;;;;;;;;;;2.80;99.90;;;;;;5019805;28;19925;-84
2024/01/13 04:23:06;;;;;;;;;;;4.40;99.90;;;;;;5001352;28;19925;-85
2024/01/13 04:25:32;;;;;;;;;;;2.80;99.90;;;;;;5001635;28;19925;-85
2024/01/13 04:28:00;;;;;;;;;;;3.20;99.90;;;;;;4994262;28;19929;-85
2024/01/13 04:30:26;;;;;;;;;;;3.10;99.90;;;;;;5001938;28;19925;-86
2024/01/13 04:32:52;;;;;;;;;;;3.70;99.90;;;;;;5016982;28;19932;-85
2024/01/13 04:35:17;;;;;;;;;;;3.20;99.90;;;;;;5015522;28;20004;-85
2024/01/13 04:37:43;;;;;;;;;;;3.00;99.90;;;;;;4996076;28;19921;-85
2024/01/13 04:40:08;;;;;;;;;;;3.30;99.90;;;;;;5011785;28;19987;-85
2024/01/13 04:42:34;;;;;;;;;;;2.90;99.90;;;;;;5016254;28;20404;-85
2024/01/13 04:45:00;;;;;;;;;;;3.00;99.90;;;;;;5017653;28;20164;-85
2024/01/13 04:47:26;;;;;;;;;;;2.90;99.90;;;;;;4996078;28;19932;-86
2024/01/13 04:49:51;;;;;;;;;;;3.60;99.90;;;;;;5018097;28;20320;-85
2024/01/13 04:52:17;;;;;;;;;;;2.90;99.90;;;;;;5016575;28;19927;-85
2024/01/13 04:54:42;;;;;;;;;;;2.90;99.90;;;;;;5018491;28;19921;-85
2024/01/13 04:57:08;;;;;;;;;;;3.60;99.90;;;;;;5001410;28;19964;-85
2024/01/13 04:59:33;;;;;;;;;;;3.70;99.90;;;;;;4994795;28;19921;-85
2024/01/13 05:01:59;;;;;;;;;;;3.30;99.90;;;;;;5013835;28;19965;-85
2024/01/13 05:04:26;;;;;;;;;;;2.90;99.90;;;;;;5032460;28;19921;-85
2024/01/13 05:06:52;;;;;;;;;;;3.40;99.90;;;;;;5014366;28;19930;-85
2024/01/13 05:09:17;;;;;;;;;;;3.10;99.90;;;;;;5016800;28;19921;-85
2024/01/13 05:11:43;;;;;;;;;;;3.90;99.90;;;;;;5016371;28;19928;-85
2024/01/13 05:14:08;;;;;;;;;;;2.90;99.90;;;;;;5000026;28;20289;-85
2024/01/13 05:16:34;;;;;;;;;;;2.90;99.90;;;;;;5017700;28;19975;-85
2024/01/13 05:19:00;;;;;;;;;;;3.90;99.90;;;;;;5034043;28;19921;-85
2024/01/13 05:21:25;;;;;;;;;;;3.40;99.90;;;;;;5010446;28;20078;-85
2024/01/13 05:23:51;;;;;;;;;;;2.90;99.90;;;;;;5015856;28;19925;-85
2024/01/13 05:26:16;;;;;;;;;;;2.90;99.90;;;;;;4996542;28;19921;-85
2024/01/13 05:28:42;;;;;;;;;;;3.40;99.90;;;;;;5000608;28;19925;-85
2024/01/13 05:31:07;;;;;;;;;;;4.50;99.90;;;;;;5013965;28;20051;-84
2024/01/13 05:33:33;;;;;;;;;;;2.90;99.90;;;;;;5000808;28;19921;-85
2024/01/13 05:35:59;;;;;;;;;;;2.90;99.90;;;;;;5014446;28;19929;-84
2024/01/13 05:38:25;;;;;;;;;;;2.90;99.90;;;;;;5008775;28;20560;-84
2024/01/13 05:40:50;;;;;;;;;;;3.00;99.90;;;;;;5032442;28;19928;-85
2024/01/13 05:43:16;;;;;;;;;;;3.40;99.90;;;;;;5021170;28;20040;-85
2024/01/13 05:45:41;;;;;;;;;;;3.00;99.90;;;;;;5016977;28;19921;-85
2024/01/13 05:48:07;;;;;;;;;;;3.90;99.90;;;;;;5015169;28;20400;-85
2024/01/13 05:50:33;;;;;;;;;;;3.60;99.90;;;;;;4999947;28;19921;-84
2024/01/13 05:52:59;;;;;;;;;;;4.20;99.90;;;;;;5016810;28;19921;-84
2024/01/13 05:55:24;;;;;;;;;;;3.40;99.90;;;;;;5033196;28;19928;-84
2024/01/13 05:57:50;;;;;;;;;;;4.80;99.90;;;;;;5016765;28;19921;-84
2024/01/13 06:00:16;;;;;;;;;;;3.70;99.90;;;;;;5013330;28;19920;-84
2024/01/13 06:02:43;;;;;;;;;;;3.00;99.90;;;;;;5008332;28;20024;-84
2024/01/13 06:05:09;;;;;;;;;;;2.90;99.90;;;;;;4999815;28;19921;-85
2024/01/13 06:07:35;;;;;;;;;;;4.40;99.90;;;;;;5032680;28;19925;-84
2024/01/13 06:10:00;;;;;;;;;;;3.30;99.90;;;;;;5032404;28;19960;-85
2024/01/13 06:12:28;;;;;;;;;;;3.50;99.90;;;;;;5032582;28;19973;-84
2024/01/13 06:14:54;;;;;;;;;;;4.10;99.90;;;;;;5014796;28;19928;-84
2024/01/13 06:17:20;;;;;;;;;;;3.40;99.90;;;;;;5000295;28;20289;-84
2024/01/13 06:19:46;;;;;;;;;;;3.50;99.90;;;;;;5016624;28;19927;-85
2024/01/13 06:22:12;;;;;;;;;;;2.90;99.90;;;;;;4997831;28;19933;-84
2024/01/13 06:24:37;;;;;;;;;;;4.00;99.90;;;;;;4998431;28;19921;-85
2024/01/13 06:27:03;;;;;;;;;;;2.90;99.90;;;;;;4999060;28;19925;-84
2024/01/13 06:29:29;;;;;;;;;;;3.00;99.90;;;;;;4996969;28;19921;-84
2024/01/13 06:31:54;;;;;;;;;;;4.30;99.90;;;;;;4998275;28;19928;-84
2024/01/13 06:34:20;;;;;;;;;;;3.00;99.90;;;;;;4997300;28;20674;-84
2024/01/13 06:36:45;;;;;;;;;;;3.80;99.90;;;;;;5012028;28;19921;-84
2024/01/13 06:39:11;;;;;;;;;;;4.30;99.90;;;;;;4997148;28;20011;-85
2024/01/13 06:41:37;;;;;;;;;;;2.90;99.90;;;;;;5015100;28;19921;-85
2024/01/13 06:44:02;;;;;;;;;;;2.90;99.90;;;;;;5015538;28;20024;-85
2024/01/13 06:46:28;;;;;;;;;;;2.90;99.90;;;;;;4998925;28;19929;-85
2024/01/13 06:48:53;;;;;;;;;;;2.90;99.90;;;;;;5009742;28;19925;-86
2024/01/13 06:51:19;;;;;;;;;;;3.40;99.90;;;;;;4996429;28;19925;-85
2024/01/13 06:53:45;;;;;;;;;;;3.00;99.90;;;;;;5028912;28;19921;-85
2024/01/13 06:56:10;;;;;;;;;;;4.60;99.90;;;;;;5031574;28;19996;-85
2024/01/13 06:58:36;;;;;;;;;;;3.80;99.90;;;;;;5014601;28;20018;-84
2024/01/13 07:01:02;;;;;;;;;;;4.10;99.90;;;;;;4998650;28;19947;-84
2024/01/13 07:03:27;;;;;;;;;;;3.40;99.90;;;;;;5013168;28;19925;-85
2024/01/13 07:05:53;;;;;;;;;;;3.60;99.90;;;;;;5031528;28;19928;-85
2024/01/13 07:08:18;;;;;;;;;;;2.90;99.90;;;;;;5016769;28;19925;-85
2024/01/13 07:10:44;;;;;;;;;;;3.40;99.90;;;;;;5028730;28;20277;-84
2024/01/13 07:13:09;;;;;;;;;;;3.00;99.90;;;;;;4995638;28;19928;-84
2024/01/13 07:15:35;;;;;;;;;;;3.10;99.90;;;;;;5014467;28;19925;-85
2024/01/13 07:18:01;;;;;;;;;;;3.80;99.90;;;;;;4996385;28;19921;-85
2024/01/13 07:20:26;;;;;;;;;;;3.00;99.90;;;;;;5032700;28;19957;-84
2024/01/13 07:22:52;;;;;;;;;;;3.30;99.90;;;;;;5032769;28;19955;-84
2024/01/13 07:25:18;;;;;;;;;;;3.00;99.90;;;;;;5015124;28;19975;-83
2024/01/13 07:27:43;;;;;;;;;;;3.40;99.90;;;;;;4999140;28;19925;-84
2024/01/13 07:30:09;;;;;;;;;;;3.00;99.90;;;;;;4996752;28;20357;-83
2024/01/13 07:32:35;;;;;;;;;;;3.00;99.90;;;;;;5012613;28;19921;-89
2024/01/13 07:35:00;;;;;;;;;;;3.00;99.90;;;;;;5032470;28;19925;-85
2024/01/13 07:37:26;;;;;;;;;;;4.90;99.90;;;;;;4996746;28;19932;-85
2024/01/13 07:39:51;;;;;;;;;;;3.10;99.90;;;;;;5016329;28;20279;-85
2024/01/13 07:42:17;;;;;;;;;;;3.50;99.90;;;;;;4999039;28;19925;-85
2024/01/13 07:44:43;;;;;;;;;;;4.50;99.90;;;;;;5014946;28;19971;-84
2024/01/13 07:47:09;;;;;;;;;;;3.60;99.90;;;;;;4998799;28;19922;-83
2024/01/13 07:49:35;;;;;;;;;;;3.30;99.90;;;;;;4999454;28;19932;-84
2024/01/13 07:52:01;;;;;;;;;;;3.10;99.90;;;;;;5016147;28;20007;-84
2024/01/13 07:54:26;;;;;;;;;;;3.20;99.90;;;;;;5016315;28;19967;-86
2024/01/13 07:56:52;;;;;;;;;;;4.10;99.90;;;;;;5032125;28;19921;-85
2024/01/13 07:59:18;;;;;;;;;;;5.00;99.90;;;;;;4996134;28;19921;-85
2024/01/13 08:01:44;;;;;;;;;;;4.10;99.90;;;;;;5013577;28;19968;-87
2024/01/13 08:04:09;;;;;;;;;;;3.20;99.90;;;;;;5015201;28;19929;-85
2024/01/13 08:06:35;;;;;;;;;;;4.10;99.90;;;;;;5015248;28;19928;-85
2024/01/13 08:09:03;;;;;;;;;;;4.00;99.90;;;;;;5015778;28;20005;-84
2024/01/13 08:11:28;;;;;;;;;;;3.90;99.90;;;;;;5003844;28;19921;-84
2024/01/13 08:13:54;;;;;;;;;;;4.80;99.90;;;;;;5029668;28;19944;-84
2024/01/13 08:16:20;;;;;;;;;;;4.30;99.90;;;;;;5016314;28;20266;-85
2024/01/13 08:18:45;;;;;;;;;;;3.30;99.90;;;;;;5000916;28;19921;-85
2024/01/13 08:21:11;;;;;;;;;;;3.30;99.90;;;;;;5017229;28;19928;-85
2024/01/13 08:23:37;;;;;;;;;;;1.70;99.90;;;;;;5034241;28;20016;-86
2024/01/13 08:26:03;;;;;;;;;;;4.50;99.90;;;;;;5036161;28;19981;-85
2024/01/13 08:28:28;;;;;;;;;;;3.30;99.90;;;;;;5019238;28;19921;-85
2024/01/13 08:30:54;;;;;;;;;;;3.70;99.90;;;;;;5001190;28;20377;-86
2024/01/13 08:33:20;;;;;;;;;;;4.70;99.90;;;;;;5016361;28;19929;-85
2024/01/13 08:35:45;;;;;;;;;;;3.50;99.90;;;;;;5014502;28;19965;-88
2024/01/13 08:38:12;;;;;;;;;;;4.00;99.90;;;;;;5012513;28;19921;-87
2024/01/13 08:40:39;;;;;;;;;;;3.30;99.90;;;;;;5002439;28;19921;-86
2024/01/13 08:43:05;;;;;;;;;;;3.30;99.90;;;;;;5017597;28;19932;-87
2024/01/13 08:45:30;;;;;;;;;;;4.20;99.90;;;;;;5018835;28;20007;-87
2024/01/13 08:47:57;;;;;;;;;;;3.60;99.90;;;;;;5016960;28;19925;-87
2024/01/13 08:50:23;;;;;;;;;;;4.00;99.90;;;;;;5000837;28;19925;-90
2024/01/13 08:52:51;;;;;;;;;;;3.90;99.90;;;;;;5016918;28;19975;-84
2024/01/13 08:55:18;;;;;;;;;;;4.60;99.90;;;;;;5001718;28;19966;-88
2024/01/13 08:57:43;;;;;;;;;;;3.30;99.90;;;;;;5030730;28;20377;-87
2024/01/13 09:00:09;;;;;;;;;;;3.30;99.90;;;;;;5030042;28;20016;-88
2024/01/13 09:02:35;;;;;;;;;;;3.30;99.90;;;;;;5019375;28;19950;-88
2024/01/13 09:05:00;;;;;;;;;;;4.70;99.90;;;;;;5030964;28;20373;-88
2024/01/13 09:07:26;;;;;;;;;;;3.30;99.90;;;;;;5009886;28;19953;-86
2024/01/13 09:09:51;;;;;;;;;;;4.20;99.90;;;;;;5033650;28;20007;-87
2024/01/13 09:12:17;;;;;;;;;;;3.30;99.90;;;;;;5011862;28;20111;-85
2024/01/13 09:14:45;;;;;;;;;;;4.80;99.90;;;;;;5032095;28;19956;-88
2024/01/13 09:17:11;;;;;;;;;;;3.30;99.90;;;;;;5027720;28;19921;-87
2024/01/13 09:19:37;;;;;;;;;;;3.90;99.90;;;;;;5015499;28;19921;-87
2024/01/13 09:22:03;;;;;;;;;;;3.30;99.90;;;;;;5033850;28;20358;-86
2024/01/13 09:24:28;;;;;;;;;;;3.30;99.90;;;;;;5014968;28;19928;-86
2024/01/13 09:26:55;;;;;;;;;;;3.30;99.90;;;;;;5017914;28;19921;-86
2024/01/13 09:29:21;;;;;;;;;;;3.40;99.90;;;;;;5000707;28;19925;-86
2024/01/13 09:31:47;;;;;;;;;;;3.50;99.90;;;;;;5021360;28;19960;-85
2024/01/13 09:34:13;;;;;;;;;;;3.70;99.90;;;;;;5021687;28;19928;-86
2024/01/13 09:36:38;;;;;;;;;;;3.60;99.90;;;;;;5001777;28;20370;-86
2024/01/13 09:39:04;;;;;;;;;;;3.90;99.90;;;;;;5004210;28;19921;-86
2024/01/13 09:41:29;;;;;;;;;;;4.10;99.90;;;;;;5000809;28;20331;-84
2024/01/13 09:43:55;;;;;;;;;;;3.90;99.90;;;;;;5011701;28;19991;-86
2024/01/13 09:46:21;;;;;;;;;;;4.40;99.90;;;;;;5017181;28;19968;-85
2024/01/13 09:48:48;;;;;;;;;;;3.30;99.90;;;;;;5017081;28;19925;-86
2024/01/13 09:51:13;;;;;;;;;;;3.50;99.90;;;;;;5013103;28;19921;-85
2024/01/13 09:53:44;;;;;;;;;;;3.40;99.90;;;;;;4997458;28;20305;-85
2024/01/13 09:56:13;;;;;;;;;;;4.00;99.90;;;;;;5017675;28;19921;-85
2024/01/13 09:58:39;;;;;;;;;;;3.70;99.90;;;;;;5017189;28;19943;-85
2024/01/13 10:01:06;;;;;;;;;;;4.20;99.90;;;;;;5015772;28;20296;-85
2024/01/13 10:03:31;;;;;;;;;;;3.40;99.90;;;;;;5013346;28;20349;-85
2024/01/13 10:05:57;;;;;;;;;;;3.90;99.90;;;;;;5016194;28;19925;-86
2024/01/13 10:08:28;;;;;;;;;;;4.10;99.90;;;;;;5008182;28;19921;-85
2024/01/13 10:10:54;;;;;;;;;;;3.50;99.90;;;;;;5045107;28;19921;-85
2024/01/13 10:13:20;;;;;;;;;;;4.70;99.90;;;;;;5031835;28;19928;-85
2024/01/13 10:15:46;;;;;;;;;;;3.50;99.90;;;;;;5016145;28;20293;-85
2024/01/13 10:18:11;;;;;;;;;;;4.10;99.90;;;;;;5015825;28;19925;-85
2024/01/13 10:20:37;;;;;;;;;;;3.50;99.90;;;;;;5014426;28;20027;-85
2024/01/13 10:23:03;;;;;;;;;;;3.50;99.90;;;;;;5017031;28;19952;-86
2024/01/13 10:25:29;;;;;;;;;;;3.50;99.90;;;;;;5000112;28;20369;-87
2024/01/13 10:27:56;;;;;;;;;;;3.60;99.90;;;;;;5016959;28;19921;-86
2024/01/13 10:30:21;;;;;;;;;;;4.70;99.90;;;;;;5032224;28;19928;-86
2024/01/13 10:32:47;;;;;;;;;;;3.60;99.90;;;;;;5015604;28;19921;-86
2024/01/13 10:35:17;;;;;;;;;;;4.40;99.90;;;;;;5032345;28;19928;-87
2024/01/13 10:37:43;;;;;;;;;;;3.60;99.90;;;;;;5031207;28;19921;-87
2024/01/13 10:40:09;;;;;;;;;;;3.90;99.90;;;;;;5014520;28;19928;-86
2024/01/13 10:42:36;;;;;;;;;;;3.60;99.90;;;;;;5021264;28;19970;-86
2024/01/13 10:45:06;;;;;;;;;;;4.80;99.90;;;;;;5034061;28;19921;-85
2024/01/13 10:47:35;;;;;;;;;;;4.30;99.90;;;;;;5036767;28;19921;-87
2024/01/13 10:50:01;;;;;;;;;;;3.70;99.90;;;;;;5027348;28;19929;-87
2024/01/13 10:52:31;;;;;;;;;;;3.70;99.90;;;;;;5021603;28;19921;-87
2024/01/13 10:55:00;;;;;;;;;;;3.70;99.90;;;;;;5035173;28;19928;-87
2024/01/13 10:57:27;;;;;;;;;;;4.60;99.90;;;;;;5018488;28;19925;-87
2024/01/13 10:59:54;;;;;;;;;;;5.10;99.90;;;;;;5017600;28;19943;-87
2024/01/13 11:02:20;;;;;;;;;;;5.40;99.90;;;;;;5009782;28;19925;-86
2024/01/13 11:04:46;;;;;;;;;;;5.60;99.90;;;;;;5031266;28;19921;-88
2024/01/13 11:07:12;;;;;;;;;;;4.50;99.90;;;;;;5032852;28;19925;-88
2024/01/13 11:09:38;;;;;;;;;;;4.90;99.90;;;;;;5026850;28;19981;-88
2024/01/13 11:12:24;;;;;;;;;;;4.60;99.90;;;;;;5006807;28;19975;-87
2024/01/13 11:14:57;;;;;;;;;;;3.80;99.90;;;;;;5021507;28;19929;-87
2024/01/13 11:17:23;;;;;;;;;;;3.90;99.90;;;;;;5018829;28;21783;-88
2024/01/13 11:19:49;;;;;;;;;;;3.90;99.90;;;;;;5008828;28;19927;-89
2024/01/13 11:22:33;;;;;;;;;;;5.50;99.90;;;;;;5000023;28;20274;-87
2024/01/13 11:24:59;;;;;;;;;;;3.90;99.90;;;;;;5008717;28;20015;-87
2024/01/13 11:27:25;;;;;;;;;;;5.10;99.90;;;;;;5016301;28;20348;-87
2024/01/13 11:29:51;;;;;;;;;;;4.00;99.90;;;;;;5000158;28;19945;-87
2024/01/13 11:32:16;;;;;;;;;;;3.90;99.90;;;;;;5016923;28;19929;-87
2024/01/13 11:34:44;;;;;;;;;;;4.00;99.90;;;;;;5017700;28;19925;-87
2024/01/13 11:37:10;;;;;;;;;;;4.10;99.90;;;;;;5016678;28;19954;-86
2024/01/13 11:39:36;;;;;;;;;;;4.00;99.90;;;;;;4997784;28;19921;-87
2024/01/13 11:42:03;;;;;;;;;;;4.00;99.90;;;;;;5032454;28;19932;-88
2024/01/13 11:44:34;;;;;;;;;;;4.00;99.90;;;;;;5016582;28;20024;-89
2024/01/13 11:47:01;;;;;;;;;;;4.10;99.90;;;;;;5011108;28;19967;-88
2024/01/13 11:49:33;;;;;;;;;;;4.10;99.90;;;;;;5011003;28;20399;-88
2024/01/13 11:52:06;;;;;;;;;;;4.10;99.90;;;;;;5015688;28;20313;-87
2024/01/13 11:54:32;;;;;;;;;;;4.10;99.90;;;;;;5021169;28;20590;-87
2024/01/13 11:56:58;;;;;;;;;;;4.10;99.90;;;;;;5037154;28;19921;-89
2024/01/13 11:59:24;;;;;;;;;;;4.10;99.90;;;;;;5032794;28;19928;-90
2024/01/13 12:01:50;;;;;;;;;;;4.50;99.90;;;;;;5011979;28;19921;-88
2024/01/13 12:04:16;;;;;;;;;;;4.80;99.90;;;;;;5018773;28;20430;-88
2024/01/13 12:06:43;;;;;;;;;;;4.20;99.90;;;;;;5016971;28;19925;-88
2024/01/13 12:09:10;;;;;;;;;;;4.90;99.90;;;;;;5035446;28;20323;-88
2024/01/13 12:11:36;;;;;;;;;;;4.30;99.90;;;;;;5018304;28;20022;-87
2024/01/13 12:14:02;;;;;;;;;;;4.70;99.90;;;;;;5016696;28;20365;-87
2024/01/13 12:16:28;;;;;;;;;;;5.30;99.90;;;;;;5001800;28;20000;-88
2024/01/13 12:18:54;;;;;;;;;;;4.30;99.90;;;;;;5001296;28;20024;-88
2024/01/13 12:21:20;;;;;;;;;;;5.20;99.90;;;;;;5017825;28;19928;-88
2024/01/13 12:23:46;;;;;;;;;;;4.60;99.90;;;;;;5020502;28;20457;-88
2024/01/13 12:26:12;;;;;;;;;;;4.50;99.90;;;;;;5019200;28;20288;-88
2024/01/13 12:28:41;;;;;;;;;;;4.50;99.90;;;;;;4997239;28;19967;-88
2024/01/13 12:31:07;;;;;;;;;;;4.50;99.90;;;;;;5002617;28;19921;-87
2024/01/13 12:33:33;;;;;;;;;;;4.70;99.90;;;;;;5002872;28;20387;-87
2024/01/13 12:35:59;;;;;;;;;;;4.60;99.90;;;;;;5017983;28;19927;-88
2024/01/13 12:38:28;;;;;;;;;;;4.60;99.90;;;;;;5019997;28;19928;-87
2024/01/13 12:40:54;;;;;;;;;;;4.60;99.90;;;;;;5003301;28;19921;-87
2024/01/13 12:43:20;;;;;;;;;;;5.70;99.90;;;;;;5036469;28;20102;-87
2024/01/13 12:45:45;;;;;;;;;;;5.20;99.90;;;;;;5019879;28;20384;-88
2024/01/13 12:48:11;;;;;;;;;;;5.60;99.90;;;;;;5036338;28;20381;-88
2024/01/13 12:50:36;;;;;;;;;;;4.80;99.90;;;;;;5000352;28;20369;-87
2024/01/13 12:53:02;;;;;;;;;;;5.20;99.90;;;;;;5015870;28;19921;-88
2024/01/13 12:55:28;;;;;;;;;;;4.80;99.90;;;;;;5009984;28;19991;-88
2024/01/13 12:57:54;;;;;;;;;;;4.80;99.90;;;;;;5001427;28;20381;-87
2024/01/13 13:00:20;;;;;;;;;;;4.80;99.90;;;;;;5015350;28;19967;-88
2024/01/13 13:02:51;;;;;;;;;;;5.20;99.90;;;;;;5013561;28;19926;-88
2024/01/13 13:05:17;;;;;;;;;;;5.60;99.90;;;;;;5038953;28;19921;-88
2024/01/13 13:07:43;;;;;;;;;;;4.70;99.90;;;;;;5018227;28;19971;-88
2024/01/13 13:10:09;;;;;;;;;;;4.70;99.90;;;;;;5016037;28;19929;-88
2024/01/13 13:12:35;;;;;;;;;;;4.70;99.90;;;;;;4999589;28;20358;-88
2024/01/13 13:15:00;;;;;;;;;;;4.70;99.90;;;;;;5015224;28;19932;-90
2024/01/13 13:17:27;;;;;;;;;;;4.60;99.90;;;;;;5017509;28;19921;-92
2024/01/13 13:19:52;;;;;;;;;;;4.60;99.90;;;;;;5017810;28;20016;-89
2024/01/13 13:22:18;;;;;;;;;;;5.70;99.90;;;;;;5016212;28;20063;-89
2024/01/13 13:24:44;;;;;;;;;;;5.70;99.90;;;;;;5016150;28;19928;-89
2024/01/13 13:27:09;;;;;;;;;;;5.40;99.90;;;;;;5018598;28;19940;-88
2024/01/13 13:29:35;;;;;;;;;;;4.40;99.90;;;;;;5017408;28;20440;-89
2024/01/13 13:32:03;;;;;;;;;;;4.40;99.90;;;;;;5001222;28;19921;-89
2024/01/13 13:34:33;;;;;;;;;;;4.60;99.90;;;;;;5017699;28;19921;-88
2024/01/13 13:36:59;;;;;;;;;;;4.40;99.90;;;;;;5030123;28;20377;-89
2024/01/13 13:39:31;;;;;;;;;;;4.40;99.90;;;;;;4999822;28;19921;-88
2024/01/13 13:41:57;;;;;;;;;;;4.40;99.90;;;;;;5017864;28;20414;-89
2024/01/13 13:44:23;;;;;;;;;;;5.10;99.90;;;;;;5017628;28;19964;-88
2024/01/13 13:46:49;;;;;;;;;;;5.20;99.90;;;;;;5023987;28;20083;-89
2024/01/13 13:49:15;;;;;;;;;;;4.30;99.90;;;;;;5024723;28;19925;-89
2024/01/13 13:51:41;;;;;;;;;;;4.20;99.90;;;;;;5017588;28;20401;-88
2024/01/13 13:54:07;;;;;;;;;;;5.00;99.90;;;;;;5017530;28;19921;-88
2024/01/13 13:56:32;;;;;;;;;;;6.10;99.90;;;;;;5017138;28;20372;-88
2024/01/13 13:58:58;;;;;;;;;;;5.00;99.90;;;;;;4993664;28;20008;-88
2024/01/13 14:01:23;;;;;;;;;;;4.60;99.90;;;;;;5017051;28;19957;-88
2024/01/13 14:03:49;;;;;;;;;;;5.30;99.90;;;;;;5000271;28;20004;-88
2024/01/13 14:06:15;;;;;;;;;;;4.70;99.90;;;;;;5033540;28;19921;-88
2024/01/13 14:08:40;;;;;;;;;;;4.20;99.90;;;;;;5016305;28;19944;-88
2024/01/13 14:11:06;;;;;;;;;;;5.10;99.90;;;;;;5011754;28;19928;-88
2024/01/13 14:13:32;;;;;;;;;;;4.60;99.90;;;;;;5016099;28;19921;-88
2024/01/13 14:15:58;;;;;;;;;;;4.90;99.90;;;;;;5015091;28;19921;-88
2024/01/13 14:18:24;;;;;;;;;;;5.00;99.90;;;;;;5014958;28;20412;-88
2024/01/13 14:20:50;;;;;;;;;;;4.20;99.90;;;;;;5017533;28;19964;-87
2024/01/13 14:23:16;;;;;;;;;;;4.40;99.90;;;;;;5011610;28;19932;-86